createdAt,value
2019-05-13T00:00:23.517Z,46.91
2019-05-13T00:01:23.817Z,46.81
2019-05-13T00:02:23.989Z,47.01
2019-05-13T00:03:23.892Z,47.52
2019-05-13T00:04:24.046Z,47.52
2019-05-13T00:05:23.350Z,46.81
2019-05-13T00:06:23.801Z,47.11
2019-05-13T00:07:23.874Z,46.50
2019-05-13T00:08:24.684Z,46.91
2019-05-13T00:09:24.316Z,47.52
2019-05-13T00:10:24.194Z,47.22
2019-05-13T00:11:23.918Z,47.42
2019-05-13T00:12:23.893Z,47.01
2019-05-13T00:13:23.699Z,47.55
2019-05-13T00:14:23.816Z,47.64
2019-05-13T00:15:21.793Z,47.55
2019-05-13T00:16:23.480Z,47.13
2019-05-13T00:17:23.728Z,47.85
2019-05-13T00:18:23.505Z,47.85
2019-05-13T00:19:23.370Z,48.16
2019-05-13T00:20:24.007Z,47.96
2019-05-13T00:21:23.206Z,48.06
2019-05-13T00:22:23.401Z,48.16
2019-05-13T00:23:23.372Z,47.96
2019-05-13T00:24:21.691Z,48.06
2019-05-13T00:25:21.671Z,47.85
2019-05-13T00:26:21.696Z,47.64
2019-05-13T00:27:23.475Z,48.06
2019-05-13T00:28:23.472Z,47.85
2019-05-13T00:29:23.446Z,47.67
2019-05-13T00:30:23.505Z,47.96
2019-05-13T00:31:23.646Z,47.97
2019-05-13T00:32:23.610Z,47.77
2019-05-13T00:33:21.585Z,47.88
2019-05-13T00:34:21.573Z,48.08
2019-05-13T00:35:23.307Z,47.88
2019-05-13T00:36:21.581Z,47.96
2019-05-13T00:37:21.543Z,47.88
2019-05-13T00:38:21.533Z,47.88
2019-05-13T00:39:21.543Z,47.46
2019-05-13T00:40:21.511Z,48.59
2019-05-13T00:41:21.498Z,48.28
2019-05-13T00:42:21.655Z,48.69
2019-05-13T00:43:21.481Z,49.00
2019-05-13T00:44:21.493Z,48.59
2019-05-13T00:45:21.461Z,48.80
2019-05-13T00:46:23.612Z,48.72
2019-05-13T00:47:23.647Z,49.02
2019-05-13T00:48:23.366Z,49.21
2019-05-13T00:49:23.724Z,48.69
2019-05-13T00:50:21.397Z,49.23
2019-05-13T00:51:21.383Z,49.51
2019-05-13T00:52:23.447Z,49.10
2019-05-13T00:53:23.616Z,49.33
2019-05-13T00:54:23.527Z,49.02
2019-05-13T00:55:23.656Z,49.23
2019-05-13T00:56:23.643Z,49.21
2019-05-13T00:57:23.692Z,49.33
2019-05-13T00:58:21.310Z,49.74
2019-05-13T00:59:21.298Z,49.43
2019-05-13T01:00:21.289Z,49.85
2019-05-13T01:01:21.304Z,49.74
2019-05-13T01:02:21.288Z,49.85
2019-05-13T01:03:21.255Z,50.67
2019-05-13T01:04:23.173Z,50.67
2019-05-13T01:05:23.296Z,51.28
2019-05-13T01:06:21.236Z,50.46
2019-05-13T01:07:28.304Z,51.10
2019-05-13T01:08:23.686Z,50.59
2019-05-13T01:09:23.564Z,50.79
2019-05-13T01:10:21.182Z,50.90
2019-05-13T01:11:21.169Z,51.28
2019-05-13T01:12:21.177Z,51.10
2019-05-13T01:13:21.142Z,50.97
2019-05-13T01:14:23.342Z,52.12
2019-05-13T01:15:21.126Z,51.51
2019-05-13T01:16:22.940Z,51.31
2019-05-13T01:17:23.421Z,51.72
2019-05-13T01:18:23.275Z,52.33
2019-05-13T01:19:21.080Z,52.02
2019-05-13T01:20:23.439Z,52.95
2019-05-13T01:21:21.056Z,52.74
2019-05-13T01:22:21.078Z,52.54
2019-05-13T01:23:21.037Z,52.66
2019-05-13T01:24:21.018Z,53.49
2019-05-13T01:25:21.013Z,52.87
2019-05-13T01:26:23.169Z,53.38
2019-05-13T01:27:21.009Z,54.00
2019-05-13T01:28:20.978Z,53.59
2019-05-13T01:29:20.967Z,54.21
2019-05-13T01:30:20.954Z,54.51
2019-05-13T01:31:20.943Z,54.61
2019-05-13T01:32:20.952Z,54.61
2019-05-13T01:33:20.923Z,54.21
2019-05-13T01:34:20.916Z,54.51
2019-05-13T01:35:20.906Z,54.41
2019-05-13T01:36:20.889Z,54.51
2019-05-13T01:37:20.894Z,54.41
2019-05-13T01:38:20.866Z,54.41
2019-05-13T01:39:20.859Z,54.10
2019-05-13T01:40:20.855Z,53.69
2019-05-13T01:41:20.836Z,53.89
2019-05-13T01:42:20.850Z,55.13
2019-05-13T01:43:20.814Z,55.05
2019-05-13T01:44:20.802Z,55.02
2019-05-13T01:45:20.805Z,55.46
2019-05-13T01:46:20.777Z,55.77
2019-05-13T01:47:20.766Z,55.77
2019-05-13T01:48:20.774Z,55.98
2019-05-13T01:49:20.749Z,55.77
2019-05-13T01:50:20.745Z,55.77
2019-05-13T01:51:20.736Z,56.28
2019-05-13T01:52:20.712Z,56.38
2019-05-13T01:53:20.724Z,55.98
2019-05-13T01:54:20.687Z,56.49
2019-05-13T01:55:20.689Z,56.18
2019-05-13T01:56:20.665Z,56.59
2019-05-13T01:57:20.670Z,56.38
2019-05-13T01:58:20.666Z,57.00
2019-05-13T01:59:20.631Z,57.10
2019-05-13T02:00:20.618Z,57.00
2019-05-13T02:01:20.613Z,56.70
2019-05-13T02:02:20.612Z,56.72
2019-05-13T02:03:20.606Z,56.70
2019-05-13T02:04:20.580Z,57.44
2019-05-13T02:05:20.568Z,57.64
2019-05-13T02:06:20.569Z,58.16
2019-05-13T02:07:20.544Z,57.85
2019-05-13T02:08:20.558Z,58.47
2019-05-13T02:09:20.520Z,57.85
2019-05-13T02:10:20.510Z,58.16
2019-05-13T02:11:20.498Z,58.26
2019-05-13T02:12:20.490Z,58.57
2019-05-13T02:13:20.507Z,58.47
2019-05-13T02:14:20.464Z,58.67
2019-05-13T02:15:20.452Z,58.87
2019-05-13T02:16:20.446Z,58.47
2019-05-13T02:17:20.442Z,59.08
2019-05-13T02:18:20.442Z,58.57
2019-05-13T02:19:20.416Z,58.78
2019-05-13T02:20:20.411Z,58.47
2019-05-13T02:21:20.388Z,59.11
2019-05-13T02:22:20.378Z,58.70
2019-05-13T02:23:20.397Z,59.01
2019-05-13T02:24:20.356Z,58.50
2019-05-13T02:25:20.337Z,58.50
2019-05-13T02:26:20.377Z,58.50
2019-05-13T02:27:20.336Z,58.59
2019-05-13T02:28:20.308Z,58.59
2019-05-13T02:29:20.326Z,59.31
2019-05-13T02:30:20.295Z,59.63
2019-05-13T02:31:31.985Z,59.52
2019-05-13T02:32:23.475Z,59.93
2019-05-13T02:33:22.991Z,60.45
2019-05-13T02:34:23.200Z,60.35
2019-05-13T02:35:22.934Z,60.14
2019-05-13T02:36:22.764Z,60.14
2019-05-13T02:37:23.167Z,60.58
2019-05-13T02:38:24.717Z,60.06
2019-05-13T02:39:22.290Z,60.86
2019-05-13T02:40:22.681Z,60.35
2019-05-13T02:41:22.733Z,60.27
2019-05-13T02:42:22.868Z,60.17
2019-05-13T02:43:23.118Z,60.99
2019-05-13T02:44:22.532Z,60.27
2019-05-13T02:45:22.763Z,60.78
2019-05-13T02:46:22.653Z,60.99
2019-05-13T02:47:22.588Z,61.19
2019-05-13T02:48:23.348Z,60.89
2019-05-13T02:49:22.906Z,61.30
2019-05-13T02:50:22.607Z,61.40
2019-05-13T02:51:23.044Z,61.61
2019-05-13T02:52:22.353Z,61.71
2019-05-13T02:53:23.230Z,61.91
2019-05-13T02:54:22.891Z,62.43
2019-05-13T02:55:22.342Z,62.12
2019-05-13T02:56:22.629Z,62.25
2019-05-13T02:57:23.064Z,62.66
2019-05-13T02:58:24.456Z,62.56
2019-05-13T02:59:22.625Z,62.53
2019-05-13T03:00:19.954Z,62.56
2019-05-13T03:01:22.274Z,62.53
2019-05-13T03:02:22.395Z,62.84
2019-05-13T03:03:23.084Z,62.63
2019-05-13T03:04:23.070Z,62.56
2019-05-13T03:05:21.980Z,62.56
2019-05-13T03:06:22.248Z,62.97
2019-05-13T03:07:23.184Z,63.07
2019-05-13T03:08:38.601Z,63.07
2019-05-13T03:09:22.996Z,63.59
2019-05-13T03:10:22.216Z,63.15
2019-05-13T03:11:22.519Z,63.07
2019-05-13T03:12:22.791Z,62.97
2019-05-13T03:13:22.965Z,62.77
2019-05-13T03:14:23.519Z,64.31
2019-05-13T03:15:22.929Z,63.28
2019-05-13T03:16:22.902Z,63.39
2019-05-13T03:17:22.415Z,62.97
2019-05-13T03:18:22.527Z,63.69
2019-05-13T03:19:22.442Z,63.79
2019-05-13T03:20:22.440Z,64.00
2019-05-13T03:21:22.877Z,64.11
2019-05-13T03:22:22.405Z,63.90
2019-05-13T03:23:22.723Z,64.00
2019-05-13T03:24:22.770Z,64.11
2019-05-13T03:25:22.744Z,63.90
2019-05-13T03:26:23.195Z,64.11
2019-05-13T03:27:23.968Z,64.21
2019-05-13T03:28:22.368Z,63.90
2019-05-13T03:29:22.201Z,63.90
2019-05-13T03:30:24.473Z,64.11
2019-05-13T03:31:25.638Z,64.41
2019-05-13T03:32:25.997Z,64.51
2019-05-13T03:33:27.235Z,64.21
2019-05-13T03:34:25.559Z,64.62
2019-05-13T03:35:26.451Z,64.44
2019-05-13T03:36:25.537Z,64.51
2019-05-13T03:37:25.447Z,64.41
2019-05-13T03:38:22.503Z,64.41
2019-05-13T03:39:22.251Z,65.03
2019-05-13T03:40:22.773Z,64.93
2019-05-13T03:41:22.433Z,65.03
2019-05-13T03:42:22.315Z,64.96
2019-05-13T03:43:22.746Z,65.37
2019-05-13T03:44:23.263Z,65.75
2019-05-13T03:45:21.966Z,65.58
2019-05-13T03:46:22.409Z,65.68
2019-05-13T03:47:22.832Z,65.44
2019-05-13T03:48:23.321Z,65.55
2019-05-13T03:49:19.413Z,66.30
2019-05-13T03:50:22.341Z,65.89
2019-05-13T03:51:22.205Z,65.99
2019-05-13T03:52:22.272Z,65.86
2019-05-13T03:53:19.368Z,66.09
2019-05-13T03:54:22.408Z,66.30
2019-05-13T03:55:22.599Z,65.75
2019-05-13T03:56:19.326Z,66.16
2019-05-13T03:57:23.062Z,65.86
2019-05-13T03:58:19.327Z,65.75
2019-05-13T03:59:22.275Z,66.27
2019-05-13T04:00:19.310Z,66.27
2019-05-13T04:01:22.120Z,66.40
2019-05-13T04:02:22.403Z,66.40
2019-05-13T04:03:22.529Z,66.47
2019-05-13T04:04:23.022Z,66.47
2019-05-13T04:05:22.469Z,66.27
2019-05-13T04:06:19.232Z,66.16
2019-05-13T04:07:19.211Z,66.58
2019-05-13T04:08:22.459Z,66.37
2019-05-13T04:09:27.467Z,66.78
2019-05-13T04:10:23.036Z,66.67
2019-05-13T04:11:21.875Z,68.12
2019-05-13T04:12:22.598Z,68.22
2019-05-13T04:13:22.998Z,68.22
2019-05-13T04:14:22.565Z,69.15
2019-05-13T04:15:19.121Z,68.53
2019-05-13T04:16:19.142Z,68.43
2019-05-13T04:17:19.107Z,67.81
2019-05-13T04:18:19.089Z,68.43
2019-05-13T04:19:19.077Z,66.54
2019-05-13T04:20:19.064Z,67.68
2019-05-13T04:21:19.083Z,67.98
2019-05-13T04:22:19.048Z,67.60
2019-05-13T04:23:19.034Z,66.75
2019-05-13T04:24:19.018Z,66.96
2019-05-13T04:25:19.006Z,67.06
2019-05-13T04:26:19.023Z,67.57
2019-05-13T04:27:18.990Z,67.36
2019-05-13T04:28:21.945Z,66.64
2019-05-13T04:29:18.970Z,66.75
2019-05-13T04:30:22.106Z,66.64
2019-05-13T04:31:22.420Z,66.64
2019-05-13T04:32:18.930Z,67.78
2019-05-13T04:33:18.924Z,67.85
2019-05-13T04:34:18.918Z,66.64
2019-05-13T04:35:18.899Z,66.51
2019-05-13T04:36:18.918Z,67.85
2019-05-13T04:37:21.997Z,66.93
2019-05-13T04:38:21.709Z,66.82
2019-05-13T04:39:39.029Z,66.31
2019-05-13T04:40:22.930Z,66.93
2019-05-13T04:41:18.848Z,66.41
2019-05-13T04:42:18.820Z,66.41
2019-05-13T04:43:18.821Z,66.31
2019-05-13T04:44:18.793Z,66.61
2019-05-13T04:45:18.794Z,66.31
2019-05-13T04:46:18.798Z,66.20
2019-05-13T04:47:18.764Z,66.10
2019-05-13T04:48:18.751Z,66.31
2019-05-13T04:49:18.741Z,66.51
2019-05-13T04:50:22.041Z,66.72
2019-05-13T04:51:22.339Z,66.61
2019-05-13T04:52:18.722Z,66.58
2019-05-13T04:53:18.697Z,66.48
2019-05-13T04:54:18.685Z,66.79
2019-05-13T04:55:18.702Z,65.77
2019-05-13T04:56:18.661Z,66.07
2019-05-13T04:57:18.695Z,65.89
2019-05-13T04:58:18.641Z,65.56
2019-05-13T04:59:18.627Z,66.00
2019-05-13T05:00:18.630Z,66.17
2019-05-13T05:01:18.611Z,66.58
2019-05-13T05:02:22.081Z,66.58
2019-05-13T05:03:23.036Z,66.61
2019-05-13T05:04:24.072Z,67.00
2019-05-13T05:05:22.419Z,66.17
2019-05-13T05:06:18.552Z,66.38
2019-05-13T05:07:18.632Z,66.48
2019-05-13T05:08:18.570Z,66.38
2019-05-13T05:09:18.528Z,66.38
2019-05-13T05:10:30.520Z,66.79
2019-05-13T05:11:22.221Z,66.89
2019-05-13T05:12:18.505Z,66.58
2019-05-13T05:13:18.481Z,66.48
2019-05-13T05:14:18.464Z,66.48
2019-05-13T05:15:18.463Z,66.55
2019-05-13T05:16:18.444Z,66.35
2019-05-13T05:17:18.448Z,66.55
2019-05-13T05:18:18.422Z,66.25
2019-05-13T05:19:18.418Z,66.76
2019-05-13T05:20:18.396Z,66.35
2019-05-13T05:21:18.389Z,66.45
2019-05-13T05:22:18.815Z,66.14
2019-05-13T05:23:18.363Z,66.25
2019-05-13T05:24:18.372Z,65.53
2019-05-13T05:25:18.349Z,66.22
2019-05-13T05:26:18.336Z,66.11
2019-05-13T05:27:18.346Z,66.22
2019-05-13T05:28:18.309Z,66.52
2019-05-13T05:29:18.297Z,66.55
2019-05-13T05:30:18.299Z,66.01
2019-05-13T05:31:18.276Z,66.31
2019-05-13T05:32:18.283Z,66.11
2019-05-13T05:33:18.255Z,66.42
2019-05-13T05:34:18.238Z,66.42
2019-05-13T05:35:18.243Z,66.11
2019-05-13T05:36:18.227Z,66.11
2019-05-13T05:37:18.242Z,65.98
2019-05-13T05:38:18.197Z,66.19
2019-05-13T05:39:18.186Z,65.80
2019-05-13T05:40:31.024Z,65.77
2019-05-13T05:41:20.973Z,65.77
2019-05-13T05:42:18.180Z,65.47
2019-05-13T05:43:18.142Z,65.67
2019-05-13T05:44:18.629Z,65.47
2019-05-13T05:45:18.124Z,65.84
2019-05-13T05:46:18.115Z,65.64
2019-05-13T05:47:18.110Z,65.23
2019-05-13T05:48:18.109Z,65.64
2019-05-13T05:49:18.074Z,65.12
2019-05-13T05:50:18.069Z,64.82
2019-05-13T05:51:18.049Z,65.00
2019-05-13T05:52:18.045Z,64.92
2019-05-13T05:53:18.052Z,65.23
2019-05-13T05:54:18.021Z,64.79
2019-05-13T05:55:18.008Z,65.20
2019-05-13T05:56:17.993Z,64.48
2019-05-13T05:57:17.985Z,64.28
2019-05-13T05:58:17.990Z,64.17
2019-05-13T05:59:17.966Z,64.14
2019-05-13T06:00:17.961Z,64.28
2019-05-13T06:01:17.988Z,64.07
2019-05-13T06:02:17.935Z,64.25
2019-05-13T06:03:17.968Z,64.45
2019-05-13T06:04:17.915Z,63.64
2019-05-13T06:05:17.898Z,63.64
2019-05-13T06:06:17.891Z,63.43
2019-05-13T06:07:17.878Z,63.43
2019-05-13T06:08:17.996Z,63.09
2019-05-13T06:09:17.865Z,63.81
2019-05-13T06:10:17.845Z,62.78
2019-05-13T06:11:17.840Z,62.48
2019-05-13T06:12:17.822Z,63.40
2019-05-13T06:13:17.827Z,63.40
2019-05-13T06:14:17.804Z,62.78
2019-05-13T06:15:17.789Z,62.45
2019-05-13T06:16:17.778Z,62.24
2019-05-13T06:17:17.763Z,62.65
2019-05-13T06:18:17.772Z,62.35
2019-05-13T06:19:18.139Z,62.35
2019-05-13T06:20:17.731Z,61.32
2019-05-13T06:21:17.722Z,61.63
2019-05-13T06:22:17.707Z,62.14
2019-05-13T06:23:17.721Z,62.21
2019-05-13T06:24:17.689Z,62.21
2019-05-13T06:25:17.679Z,61.91
2019-05-13T06:26:17.666Z,62.01
2019-05-13T06:27:17.652Z,61.70
2019-05-13T06:28:17.661Z,61.50
2019-05-13T06:29:17.632Z,61.80
2019-05-13T06:30:17.630Z,61.29
2019-05-13T06:31:17.608Z,61.29
2019-05-13T06:32:23.523Z,60.99
2019-05-13T06:33:21.043Z,61.06
2019-05-13T06:34:17.575Z,60.85
2019-05-13T06:35:17.580Z,60.35
2019-05-13T06:36:17.552Z,60.03
2019-05-13T06:37:17.543Z,59.94
2019-05-13T06:38:17.553Z,60.35
2019-05-13T06:39:17.536Z,60.31
2019-05-13T06:40:17.508Z,60.01
2019-05-13T06:41:17.504Z,60.11
2019-05-13T06:42:17.483Z,60.01
2019-05-13T06:43:17.474Z,59.70
2019-05-13T06:44:17.488Z,59.88
2019-05-13T06:45:17.450Z,59.91
2019-05-13T06:46:17.446Z,59.57
2019-05-13T06:47:17.451Z,59.06
2019-05-13T06:48:17.422Z,59.16
2019-05-13T06:49:17.427Z,59.34
2019-05-13T06:50:17.402Z,58.34
2019-05-13T06:51:17.389Z,58.01
2019-05-13T06:52:17.373Z,57.91
2019-05-13T06:53:17.359Z,58.01
2019-05-13T06:54:17.374Z,57.70
2019-05-13T06:55:17.339Z,57.60
2019-05-13T06:56:17.330Z,58.09
2019-05-13T06:57:17.319Z,56.48
2019-05-13T06:58:17.323Z,57.48
2019-05-13T06:59:17.319Z,57.17
2019-05-13T07:00:17.283Z,56.25
2019-05-13T07:01:17.277Z,56.25
2019-05-13T07:02:17.329Z,56.86
2019-05-13T07:03:17.254Z,56.32
2019-05-13T07:04:17.322Z,56.43
2019-05-13T07:05:17.232Z,55.91
2019-05-13T07:06:17.225Z,55.82
2019-05-13T07:07:17.622Z,56.32
2019-05-13T07:08:17.197Z,55.51
2019-05-13T07:09:17.217Z,55.18
2019-05-13T07:10:17.170Z,55.20
2019-05-13T07:11:21.483Z,55.07
2019-05-13T07:12:18.151Z,55.38
2019-05-13T07:13:17.145Z,55.18
2019-05-13T07:14:17.151Z,54.97
2019-05-13T07:15:17.119Z,55.05
2019-05-13T07:16:17.106Z,54.94
2019-05-13T07:17:17.105Z,54.44
2019-05-13T07:18:17.087Z,55.56
2019-05-13T07:19:17.094Z,54.11
2019-05-13T07:20:17.059Z,54.21
2019-05-13T07:21:17.063Z,53.90
2019-05-13T07:22:17.043Z,54.08
2019-05-13T07:23:17.023Z,53.27
2019-05-13T07:24:17.075Z,53.27
2019-05-13T07:25:17.018Z,52.96
2019-05-13T07:26:16.999Z,53.37
2019-05-13T07:27:16.991Z,53.34
2019-05-13T07:28:16.971Z,52.73
2019-05-13T07:29:17.404Z,53.02
2019-05-13T07:30:16.952Z,52.30
2019-05-13T07:31:16.945Z,51.92
2019-05-13T07:32:16.939Z,52.91
2019-05-13T07:33:16.925Z,52.40
2019-05-13T07:34:16.920Z,50.98
2019-05-13T07:35:16.919Z,50.16
2019-05-13T07:36:16.891Z,50.09
2019-05-13T07:37:16.871Z,50.59
2019-05-13T07:38:16.866Z,50.70
2019-05-13T07:39:16.855Z,50.39
2019-05-13T07:40:16.878Z,50.47
2019-05-13T07:41:16.826Z,50.16
2019-05-13T07:42:16.820Z,49.35
2019-05-13T07:43:16.816Z,50.06
2019-05-13T07:44:16.803Z,50.57
2019-05-13T07:45:16.822Z,49.25
2019-05-13T07:46:16.769Z,48.51
2019-05-13T07:47:16.769Z,49.04
2019-05-13T07:48:22.716Z,47.50
2019-05-13T07:49:17.742Z,47.31
2019-05-13T07:50:16.750Z,46.60
2019-05-13T07:51:16.713Z,44.65
2019-05-13T07:52:16.706Z,45.38
2019-05-13T07:53:18.973Z,45.76
2019-05-13T07:54:16.688Z,44.14
2019-05-13T07:55:16.719Z,43.63
2019-05-13T07:56:16.675Z,43.61
2019-05-13T07:57:16.646Z,44.14
2019-05-13T07:58:16.642Z,44.04
2019-05-13T07:59:16.634Z,44.12
2019-05-13T08:00:16.643Z,43.61
2019-05-13T08:01:16.613Z,43.61
2019-05-13T08:02:16.623Z,43.51
2019-05-13T08:03:16.582Z,43.59
2019-05-13T08:04:22.330Z,43.59
2019-05-13T08:05:17.581Z,43.06
2019-05-13T08:06:16.553Z,40.32
2019-05-13T08:07:16.550Z,41.01
2019-05-13T08:08:16.529Z,40.61
2019-05-13T08:09:16.534Z,40.91
2019-05-13T08:10:16.534Z,41.11
2019-05-13T08:11:16.587Z,38.05
2019-05-13T08:12:16.709Z,38.15
2019-05-13T08:13:16.483Z,40.00
2019-05-13T08:14:16.470Z,39.30
2019-05-13T08:15:16.452Z,38.81
2019-05-13T08:16:16.506Z,39.22
2019-05-13T08:17:16.431Z,40.03
2019-05-13T08:18:16.427Z,40.44
2019-05-13T08:19:16.413Z,40.34
2019-05-13T08:20:16.412Z,40.32
2019-05-13T08:21:16.403Z,41.21
2019-05-13T08:22:16.483Z,39.59
2019-05-13T08:23:16.357Z,40.12
2019-05-13T08:24:16.354Z,39.89
2019-05-13T08:25:16.335Z,39.51
2019-05-13T08:26:16.343Z,39.83
2019-05-13T08:27:21.617Z,40.75
2019-05-13T08:28:17.314Z,41.56
2019-05-13T08:29:16.293Z,40.95
2019-05-13T08:30:18.237Z,41.96
2019-05-13T08:31:16.301Z,40.36
2019-05-13T08:32:16.302Z,40.17
2019-05-13T08:33:16.264Z,40.14
2019-05-13T08:34:16.239Z,38.83
2019-05-13T08:35:16.247Z,39.44
2019-05-13T08:36:16.243Z,38.81
2019-05-13T08:37:16.206Z,39.42
2019-05-13T08:38:16.195Z,39.02
2019-05-13T08:39:16.181Z,39.40
2019-05-13T08:40:16.173Z,38.81
2019-05-13T08:41:19.418Z,38.83
2019-05-13T08:42:20.115Z,38.73
2019-05-13T08:43:17.248Z,38.53
2019-05-13T08:44:16.143Z,38.00
2019-05-13T08:45:16.126Z,37.71
2019-05-13T08:46:16.125Z,37.92
2019-05-13T08:47:16.109Z,38.61
2019-05-13T08:48:16.107Z,39.04
2019-05-13T08:49:16.067Z,37.98
2019-05-13T08:50:16.061Z,37.37
2019-05-13T08:51:16.075Z,38.37
2019-05-13T08:52:16.042Z,37.96
2019-05-13T08:53:16.050Z,37.05
2019-05-13T08:54:16.035Z,36.14
2019-05-13T08:55:16.355Z,35.21
2019-05-13T08:56:16.015Z,35.22
2019-05-13T08:57:15.983Z,35.82
2019-05-13T08:58:15.980Z,35.82
2019-05-13T08:59:15.966Z,33.97
2019-05-13T09:00:15.952Z,35.11
2019-05-13T09:01:15.946Z,35.94
2019-05-13T09:02:15.951Z,35.63
2019-05-13T09:03:15.926Z,36.53
2019-05-13T09:04:15.900Z,36.53
2019-05-13T09:05:15.901Z,36.65
2019-05-13T09:06:15.879Z,35.94
2019-05-13T09:07:15.884Z,35.11
2019-05-13T09:08:15.859Z,35.21
2019-05-13T09:09:15.852Z,34.52
2019-05-13T09:10:15.845Z,35.53
2019-05-13T09:11:15.821Z,35.42
2019-05-13T09:12:28.472Z,35.02
2019-05-13T09:13:16.810Z,34.31
2019-05-13T09:14:15.793Z,35.04
2019-05-13T09:15:15.788Z,35.95
2019-05-13T09:16:15.770Z,36.02
2019-05-13T09:17:15.786Z,34.39
2019-05-13T09:18:15.745Z,34.48
2019-05-13T09:19:16.372Z,34.16
2019-05-13T09:20:15.743Z,32.44
2019-05-13T09:21:15.715Z,31.42
2019-05-13T09:22:15.726Z,32.73
2019-05-13T09:23:15.698Z,31.21
2019-05-13T09:24:24.520Z,31.42
2019-05-13T09:25:16.682Z,31.73
2019-05-13T09:26:15.664Z,30.32
2019-05-13T09:27:15.675Z,30.02
2019-05-13T09:28:15.666Z,29.71
2019-05-13T09:29:15.630Z,29.82
2019-05-13T09:30:15.623Z,28.19
2019-05-13T09:31:15.754Z,28.70
2019-05-13T09:32:15.615Z,29.63
2019-05-13T09:33:15.581Z,30.74
2019-05-13T09:34:15.576Z,31.45
2019-05-13T09:35:15.563Z,31.76
2019-05-13T09:36:15.555Z,30.66
2019-05-13T09:37:15.546Z,30.66
2019-05-13T09:38:15.522Z,31.48
2019-05-13T09:39:15.531Z,31.16
2019-05-13T09:40:15.503Z,30.96
2019-05-13T09:41:15.490Z,31.18
2019-05-13T09:42:15.498Z,30.98
2019-05-13T09:43:15.489Z,32.80
2019-05-13T09:44:15.454Z,32.80
2019-05-13T09:45:15.450Z,33.21
2019-05-13T09:46:15.434Z,33.92
2019-05-13T09:47:15.445Z,33.80
2019-05-13T09:48:15.419Z,34.43
2019-05-13T09:49:19.643Z,33.80
2019-05-13T09:50:28.288Z,34.61
2019-05-13T09:51:16.373Z,34.61
2019-05-13T09:52:15.397Z,33.79
2019-05-13T09:53:15.361Z,34.31
2019-05-13T09:54:15.383Z,34.30
2019-05-13T09:55:28.290Z,35.21
2019-05-13T09:56:16.328Z,34.69
2019-05-13T09:57:15.522Z,32.64
2019-05-13T09:58:15.306Z,31.71
2019-05-13T09:59:15.287Z,32.02
2019-05-13T10:00:15.287Z,32.73
2019-05-13T10:01:15.265Z,30.51
2019-05-13T10:02:15.281Z,31.22
2019-05-13T10:03:15.249Z,32.05
2019-05-13T10:04:15.230Z,32.86
2019-05-13T10:05:15.231Z,33.18
2019-05-13T10:06:15.215Z,32.98
2019-05-13T10:07:15.270Z,32.59
2019-05-13T10:08:15.196Z,32.57
2019-05-13T10:09:15.183Z,33.09
2019-05-13T10:10:15.177Z,32.89
2019-05-13T10:11:15.160Z,33.19
2019-05-13T10:12:15.162Z,33.11
2019-05-13T10:13:15.800Z,32.82
2019-05-13T10:14:15.137Z,34.34
2019-05-13T10:15:15.115Z,35.46
2019-05-13T10:16:15.104Z,35.66
2019-05-13T10:17:15.117Z,35.64
2019-05-13T10:18:15.089Z,34.26
2019-05-13T10:19:15.106Z,32.61
2019-05-13T10:20:15.063Z,32.51
2019-05-13T10:21:15.044Z,31.64
2019-05-13T10:22:15.048Z,30.16
2019-05-13T10:23:15.025Z,29.94
2019-05-13T10:24:15.043Z,28.40
2019-05-13T10:25:15.023Z,26.41
2019-05-13T10:26:14.988Z,25.51
2019-05-13T10:28:15.966Z,24.64
2019-05-13T10:29:14.954Z,24.75
2019-05-13T10:30:14.945Z,26.37
2019-05-13T10:31:14.940Z,28.81
2019-05-13T10:32:14.949Z,29.13
2019-05-13T10:33:14.910Z,29.24
2019-05-13T10:34:14.899Z,29.76
2019-05-13T10:35:14.891Z,31.61
2019-05-13T10:36:14.878Z,33.44
2019-05-13T10:37:14.887Z,33.55
2019-05-13T10:38:14.854Z,34.36
2019-05-13T10:39:14.851Z,34.28
2019-05-13T10:40:14.835Z,35.39
2019-05-13T10:41:14.827Z,35.44
2019-05-13T10:42:14.847Z,33.98
2019-05-13T10:43:29.241Z,32.40
2019-05-13T10:44:15.792Z,29.90
2019-05-13T10:45:14.775Z,27.12
2019-05-13T10:46:14.777Z,25.66
2019-05-13T10:47:14.772Z,24.53
2019-05-13T10:48:14.746Z,23.39
2019-05-13T10:49:14.733Z,23.19
2019-05-13T10:50:14.729Z,22.05
2019-05-13T10:51:14.716Z,21.82
2019-05-13T10:52:14.726Z,20.20
2019-05-13T10:53:14.697Z,20.39
2019-05-13T10:54:14.702Z,21.17
2019-05-13T10:55:14.669Z,21.08
2019-05-13T10:56:14.662Z,20.89
2019-05-13T10:57:14.652Z,20.76
2019-05-13T10:58:14.672Z,20.86
2019-05-13T10:59:14.635Z,20.18
2019-05-13T11:00:14.622Z,21.74
2019-05-13T11:01:14.612Z,23.92
2019-05-13T11:02:14.596Z,26.37
2019-05-13T11:03:14.621Z,26.71
2019-05-13T11:04:14.579Z,27.24
2019-05-13T11:05:14.570Z,27.88
2019-05-13T11:06:14.561Z,26.68
2019-05-13T11:07:14.551Z,27.11
2019-05-13T11:08:14.578Z,24.39
2019-05-13T11:09:14.523Z,23.27
2019-05-13T11:10:14.515Z,23.38
2019-05-13T11:11:14.516Z,22.33
2019-05-13T11:12:14.489Z,20.00
2019-05-13T11:13:14.506Z,19.27
2019-05-13T11:14:15.679Z,19.06
2019-05-13T11:15:14.466Z,18.79
2019-05-13T11:16:14.459Z,20.31
2019-05-13T11:17:14.438Z,19.18
2019-05-13T11:18:19.363Z,19.38
2019-05-13T11:19:15.415Z,20.01
2019-05-13T11:20:14.409Z,20.42
2019-05-13T11:21:14.426Z,21.45
2019-05-13T11:22:14.392Z,20.56
2019-05-13T11:23:14.399Z,21.37
2019-05-13T11:24:14.395Z,22.71
2019-05-13T11:25:14.353Z,23.33
2019-05-13T11:26:14.350Z,24.05
2019-05-13T11:27:14.335Z,24.87
2019-05-13T11:28:14.355Z,25.90
2019-05-13T11:29:14.317Z,26.23
2019-05-13T11:30:14.316Z,26.95
2019-05-13T11:31:14.299Z,27.15
2019-05-13T11:32:14.282Z,26.29
2019-05-13T11:33:14.293Z,24.38
2019-05-13T11:34:14.255Z,21.91
2019-05-13T11:35:14.254Z,19.85
2019-05-13T11:36:18.943Z,19.72
2019-05-13T11:37:15.230Z,18.99
2019-05-13T11:38:14.227Z,17.76
2019-05-13T11:39:14.213Z,16.93
2019-05-13T11:40:14.204Z,15.82
2019-05-13T11:41:14.183Z,16.11
2019-05-13T11:42:14.172Z,16.31
2019-05-13T11:43:14.187Z,15.81
2019-05-13T11:44:16.905Z,15.14
2019-05-13T11:45:14.149Z,17.06
2019-05-13T11:46:14.140Z,16.66
2019-05-13T11:47:14.122Z,16.48
2019-05-13T11:48:14.131Z,18.50
2019-05-13T11:49:14.103Z,17.99
2019-05-13T11:50:14.092Z,19.10
2019-05-13T11:51:14.101Z,17.98
2019-05-13T11:52:14.090Z,18.39
2019-05-13T11:53:31.393Z,19.42
2019-05-13T11:54:15.056Z,18.96
2019-05-13T11:55:14.047Z,19.89
2019-05-13T11:56:14.033Z,20.70
2019-05-13T11:57:14.022Z,21.33
2019-05-13T11:58:14.321Z,22.25
2019-05-13T11:59:14.447Z,21.42
2019-05-13T12:00:13.992Z,19.75
2019-05-13T12:01:14.004Z,19.10
2019-05-13T12:02:14.160Z,18.26
2019-05-13T12:03:13.979Z,17.34
2019-05-13T12:04:13.952Z,16.02
2019-05-13T12:05:13.943Z,15.20
2019-05-13T12:06:13.937Z,14.98
2019-05-13T12:07:13.931Z,13.59
2019-05-13T12:08:13.935Z,13.29
2019-05-13T12:09:13.922Z,12.34
2019-05-13T12:10:13.901Z,14.03
2019-05-13T12:11:14.282Z,13.75
2019-05-13T12:12:14.065Z,14.65
2019-05-13T12:13:13.902Z,14.26
2019-05-13T12:14:37.968Z,14.68
2019-05-13T12:15:38.137Z,15.68
2019-05-13T12:16:14.828Z,16.01
2019-05-13T12:17:14.378Z,16.43
2019-05-13T12:18:13.813Z,17.85
2019-05-13T12:19:13.807Z,19.17
2019-05-13T12:20:13.783Z,19.38
2019-05-13T12:21:13.775Z,19.88
2019-05-13T12:22:13.784Z,19.38
2019-05-13T12:23:13.772Z,19.79
2019-05-13T12:24:13.774Z,19.49
2019-05-13T12:25:14.220Z,19.01
2019-05-13T12:26:13.719Z,19.51
2019-05-13T12:27:13.721Z,21.42
2019-05-13T12:28:13.710Z,20.92
2019-05-13T12:29:18.549Z,21.34
2019-05-13T12:30:14.677Z,21.03
2019-05-13T12:31:13.667Z,20.23
2019-05-13T12:32:13.930Z,19.64
2019-05-13T12:33:13.739Z,19.93
2019-05-13T12:34:13.653Z,20.23
2019-05-13T12:35:13.652Z,21.15
2019-05-13T12:36:18.064Z,21.04
2019-05-13T12:37:14.608Z,20.75
2019-05-13T12:38:13.968Z,19.84
2019-05-13T12:39:14.480Z,21.25
2019-05-13T12:40:13.568Z,21.15
2019-05-13T12:41:13.551Z,20.06
2019-05-13T12:42:13.562Z,21.37
2019-05-13T12:43:13.917Z,21.50
2019-05-13T12:44:13.546Z,22.01
2019-05-13T12:45:14.563Z,22.03
2019-05-13T12:46:13.510Z,22.33
2019-05-13T12:47:13.496Z,22.44
2019-05-13T12:48:14.266Z,22.45
2019-05-13T12:49:14.473Z,22.36
2019-05-13T12:50:13.894Z,22.87
2019-05-13T12:51:13.499Z,22.78
2019-05-13T12:52:13.471Z,22.58
2019-05-13T12:53:13.421Z,22.27